sensor_id;sensor_type;location;lat;lon;timestamp;pressure;altitude;pressure_sealevel;temperature;humidity
18795;BME280;29610;49.022;12.114;2023-04-25T00:01:49;97058.38;;;9.45;100.00
18795;BME280;29610;49.022;12.114;2023-04-25T00:04:38;97053.94;;;9.41;100.00
18795;BME280;29610;49.022;12.114;2023-04-25T00:07:29;97047.56;;;9.37;100.00
18795;BME280;29610;49.022;12.114;2023-04-25T00:10:19;97047.25;;;9.38;100.00
18795;BME280;29610;49.022;12.114;2023-04-25T00:13:08;97046.00;;;9.36;100.00
18795;BME280;29610;49.022;12.114;2023-04-25T00:15:59;97046.31;;;9.34;100.00
18795;BME280;29610;49.022;12.114;2023-04-25T00:18:47;97042.09;;;9.16;100.00
18795;BME280;29610;49.022;12.114;2023-04-25T00:21:39;97045.28;;;9.18;100.00
18795;BME280;29610;49.022;12.114;2023-04-25T00:24:30;97051.06;;;9.08;100.00
18795;BME280;29610;49.022;12.114;2023-04-25T00:27:19;97043.94;;;9.04;100.00
18795;BME280;29610;49.022;12.114;2023-04-25T00:30:09;97038.34;;;9.09;100.00
18795;BME280;29610;49.022;12.114;2023-04-25T00:32:58;97043.44;;;9.10;100.00
18795;BME280;29610;49.022;12.114;2023-04-25T00:35:47;97050.41;;;9.11;100.00
18795;BME280;29610;49.022;12.114;2023-04-25T00:38:36;97047.94;;;9.06;100.00
18795;BME280;29610;49.022;12.114;2023-04-25T00:41:27;97047.16;;;8.97;100.00
18795;BME280;29610;49.022;12.114;2023-04-25T00:44:17;97036.31;;;8.97;100.00
18795;BME280;29610;49.022;12.114;2023-04-25T00:47:07;97040.97;;;8.97;100.00
18795;BME280;29610;49.022;12.114;2023-04-25T00:49:56;97047.63;;;8.99;100.00
18795;BME280;29610;49.022;12.114;2023-04-25T00:52:45;97036.47;;;9.01;100.00
18795;BME280;29610;49.022;12.114;2023-04-25T00:55:34;97037.25;;;9.01;100.00
18795;BME280;29610;49.022;12.114;2023-04-25T00:58:25;97037.91;;;8.98;100.00
18795;BME280;29610;49.022;12.114;2023-04-25T01:01:14;97037.13;;;8.98;100.00
18795;BME280;29610;49.022;12.114;2023-04-25T01:04:04;97027.84;;;8.99;100.00
18795;BME280;29610;49.022;12.114;2023-04-25T01:06:54;97027.13;;;8.89;100.00
18795;BME280;29610;49.022;12.114;2023-04-25T01:09:43;97030.31;;;8.83;100.00
18795;BME280;29610;49.022;12.114;2023-04-25T01:12:32;97035.28;;;8.81;100.00
18795;BME280;29610;49.022;12.114;2023-04-25T01:15:22;97035.94;;;8.78;100.00
18795;BME280;29610;49.022;12.114;2023-04-25T01:18:14;97033.22;;;8.78;100.00
18795;BME280;29610;49.022;12.114;2023-04-25T01:21:09;97029.25;;;8.75;100.00
18795;BME280;29610;49.022;12.114;2023-04-25T01:23:59;97028.13;;;8.76;100.00
18795;BME280;29610;49.022;12.114;2023-04-25T01:26:49;97032.72;;;8.84;100.00
18795;BME280;29610;49.022;12.114;2023-04-25T01:29:43;97037.78;;;8.95;100.00
18795;BME280;29610;49.022;12.114;2023-04-25T01:32:34;97030.91;;;8.97;100.00
18795;BME280;29610;49.022;12.114;2023-04-25T01:35:26;97025.94;;;8.99;100.00
18795;BME280;29610;49.022;12.114;2023-04-25T01:38:17;97037.19;;;9.10;100.00
18795;BME280;29610;49.022;12.114;2023-04-25T01:41:06;97030.19;;;9.09;100.00
18795;BME280;29610;49.022;12.114;2023-04-25T01:43:56;97035.47;;;9.05;100.00
18795;BME280;29610;49.022;12.114;2023-04-25T01:46:45;97031.00;;;9.09;100.00
18795;BME280;29610;49.022;12.114;2023-04-25T01:49:34;97020.25;;;9.21;100.00
18795;BME280;29610;49.022;12.114;2023-04-25T01:52:23;97026.59;;;9.25;100.00
18795;BME280;29610;49.022;12.114;2023-04-25T01:55:13;97037.72;;;9.32;100.00
18795;BME280;29610;49.022;12.114;2023-04-25T01:58:11;97038.31;;;9.38;100.00
18795;BME280;29610;49.022;12.114;2023-04-25T02:01:20;97034.44;;;9.47;100.00
18795;BME280;29610;49.022;12.114;2023-04-25T02:04:26;97034.09;;;9.49;100.00
18795;BME280;29610;49.022;12.114;2023-04-25T02:07:16;97032.31;;;9.53;100.00
18795;BME280;29610;49.022;12.114;2023-04-25T02:10:13;97022.72;;;9.55;100.00
18795;BME280;29610;49.022;12.114;2023-04-25T02:13:17;97008.75;;;9.45;100.00
18795;BME280;29610;49.022;12.114;2023-04-25T02:16:19;97023.31;;;9.61;100.00
18795;BME280;29610;49.022;12.114;2023-04-25T02:19:08;97020.59;;;9.61;100.00
18795;BME280;29610;49.022;12.114;2023-04-25T02:21:57;97024.13;;;9.61;100.00
18795;BME280;29610;49.022;12.114;2023-04-25T02:24:47;97025.91;;;9.57;100.00
18795;BME280;29610;49.022;12.114;2023-04-25T02:27:37;97021.22;;;9.66;100.00
18795;BME280;29610;49.022;12.114;2023-04-25T02:30:27;97019.34;;;9.58;100.00
18795;BME280;29610;49.022;12.114;2023-04-25T02:33:17;97017.78;;;9.57;100.00
18795;BME280;29610;49.022;12.114;2023-04-25T02:36:06;97009.84;;;9.52;100.00
18795;BME280;29610;49.022;12.114;2023-04-25T02:38:55;97003.94;;;9.50;100.00
18795;BME280;29610;49.022;12.114;2023-04-25T02:41:44;97006.13;;;9.57;100.00
18795;BME280;29610;49.022;12.114;2023-04-25T02:44:34;96999.09;;;9.56;100.00
18795;BME280;29610;49.022;12.114;2023-04-25T02:47:25;96999.50;;;9.46;100.00
18795;BME280;29610;49.022;12.114;2023-04-25T02:50:14;96999.56;;;9.37;100.00
18795;BME280;29610;49.022;12.114;2023-04-25T02:53:03;96996.47;;;9.27;100.00
18795;BME280;29610;49.022;12.114;2023-04-25T02:55:57;97000.00;;;9.19;100.00
18795;BME280;29610;49.022;12.114;2023-04-25T02:58:46;96992.72;;;9.11;100.00
18795;BME280;29610;49.022;12.114;2023-04-25T03:01:37;96993.28;;;8.96;100.00
18795;BME280;29610;49.022;12.114;2023-04-25T03:04:26;96992.03;;;8.93;100.00
18795;BME280;29610;49.022;12.114;2023-04-25T03:07:15;96996.00;;;8.96;100.00
18795;BME280;29610;49.022;12.114;2023-04-25T03:10:05;96987.28;;;8.90;100.00
18795;BME280;29610;49.022;12.114;2023-04-25T03:12:56;96986.81;;;8.88;100.00
18795;BME280;29610;49.022;12.114;2023-04-25T03:15:45;96977.38;;;8.85;100.00
18795;BME280;29610;49.022;12.114;2023-04-25T03:18:35;96977.69;;;8.93;100.00
18795;BME280;29610;49.022;12.114;2023-04-25T03:21:24;96974.00;;;8.97;100.00
18795;BME280;29610;49.022;12.114;2023-04-25T03:24:13;96974.81;;;8.89;100.00
18795;BME280;29610;49.022;12.114;2023-04-25T03:27:03;96971.53;;;8.83;100.00
18795;BME280;29610;49.022;12.114;2023-04-25T03:29:52;96973.91;;;8.85;100.00
18795;BME280;29610;49.022;12.114;2023-04-25T03:32:41;96974.56;;;8.82;100.00
18795;BME280;29610;49.022;12.114;2023-04-25T03:35:36;96975.56;;;8.77;100.00
18795;BME280;29610;49.022;12.114;2023-04-25T03:38:26;96975.56;;;8.77;100.00
18795;BME280;29610;49.022;12.114;2023-04-25T03:41:16;96973.63;;;8.78;100.00
18795;BME280;29610;49.022;12.114;2023-04-25T03:44:12;96982.88;;;8.77;100.00
18795;BME280;29610;49.022;12.114;2023-04-25T03:47:01;96985.84;;;8.84;100.00
18795;BME280;29610;49.022;12.114;2023-04-25T03:49:51;96980.72;;;8.91;100.00
18795;BME280;29610;49.022;12.114;2023-04-25T03:52:44;96990.72;;;8.99;100.00
18795;BME280;29610;49.022;12.114;2023-04-25T03:55:33;96987.34;;;9.02;100.00
18795;BME280;29610;49.022;12.114;2023-04-25T03:58:23;96996.53;;;9.10;100.00
18795;BME280;29610;49.022;12.114;2023-04-25T04:01:12;96986.78;;;9.17;100.00
18795;BME280;29610;49.022;12.114;2023-04-25T04:04:01;96984.19;;;9.21;100.00
18795;BME280;29610;49.022;12.114;2023-04-25T04:06:51;96989.72;;;9.33;100.00
18795;BME280;29610;49.022;12.114;2023-04-25T04:09:50;96980.09;;;9.35;100.00
18795;BME280;29610;49.022;12.114;2023-04-25T04:12:45;96974.91;;;9.30;100.00
18795;BME280;29610;49.022;12.114;2023-04-25T04:15:34;96964.59;;;9.24;100.00
18795;BME280;29610;49.022;12.114;2023-04-25T04:18:24;96977.06;;;9.37;100.00
18795;BME280;29610;49.022;12.114;2023-04-25T04:21:15;96971.31;;;9.38;100.00
18795;BME280;29610;49.022;12.114;2023-04-25T04:24:04;96975.75;;;9.43;100.00
18795;BME280;29610;49.022;12.114;2023-04-25T04:27:08;96979.88;;;9.49;100.00
18795;BME280;29610;49.022;12.114;2023-04-25T04:30:12;96970.34;;;9.43;100.00
18795;BME280;29610;49.022;12.114;2023-04-25T04:33:17;96972.06;;;9.47;100.00
18795;BME280;29610;49.022;12.114;2023-04-25T04:36:12;96960.47;;;9.59;100.00
18795;BME280;29610;49.022;12.114;2023-04-25T04:39:01;96966.28;;;9.69;100.00
18795;BME280;29610;49.022;12.114;2023-04-25T04:42:16;96966.31;;;9.81;100.00
18795;BME280;29610;49.022;12.114;2023-04-25T04:45:25;96970.09;;;9.89;100.00
18795;BME280;29610;49.022;12.114;2023-04-25T04:48:42;96963.31;;;9.95;100.00
18795;BME280;29610;49.022;12.114;2023-04-25T04:52:02;96970.13;;;10.01;100.00
18795;BME280;29610;49.022;12.114;2023-04-25T04:55:00;96970.72;;;10.06;100.00
18795;BME280;29610;49.022;12.114;2023-04-25T04:58:11;96975.84;;;10.08;100.00
18795;BME280;29610;49.022;12.114;2023-04-25T05:01:11;96981.28;;;10.08;100.00
18795;BME280;29610;49.022;12.114;2023-04-25T05:04:16;96986.75;;;9.99;100.00
18795;BME280;29610;49.022;12.114;2023-04-25T05:07:23;96978.13;;;9.97;100.00
18795;BME280;29610;49.022;12.114;2023-04-25T05:10:25;96976.78;;;9.91;100.00
18795;BME280;29610;49.022;12.114;2023-04-25T05:13:18;96972.53;;;9.82;100.00
18795;BME280;29610;49.022;12.114;2023-04-25T05:16:21;96973.56;;;9.77;100.00
18795;BME280;29610;49.022;12.114;2023-04-25T05:19:18;96974.28;;;9.66;100.00
18795;BME280;29610;49.022;12.114;2023-04-25T05:22:27;96966.53;;;9.56;100.00
18795;BME280;29610;49.022;12.114;2023-04-25T05:25:36;96971.78;;;9.61;100.00
18795;BME280;29610;49.022;12.114;2023-04-25T05:28:32;96980.06;;;9.44;100.00
18795;BME280;29610;49.022;12.114;2023-04-25T05:31:42;96985.75;;;9.51;100.00
18795;BME280;29610;49.022;12.114;2023-04-25T05:34:35;96976.09;;;9.62;100.00
18795;BME280;29610;49.022;12.114;2023-04-25T05:37:28;96976.72;;;9.79;100.00
18795;BME280;29610;49.022;12.114;2023-04-25T05:40:26;96965.88;;;10.12;100.00
18795;BME280;29610;49.022;12.114;2023-04-25T05:43:33;96976.38;;;10.46;100.00
18795;BME280;29610;49.022;12.114;2023-04-25T05:46:42;96973.13;;;10.65;100.00
18795;BME280;29610;49.022;12.114;2023-04-25T05:49:55;96969.72;;;10.92;100.00
18795;BME280;29610;49.022;12.114;2023-04-25T05:53:12;96962.88;;;11.34;100.00
18795;BME280;29610;49.022;12.114;2023-04-25T05:56:04;96967.34;;;11.54;100.00
18795;BME280;29610;49.022;12.114;2023-04-25T05:58:57;96965.50;;;11.82;100.00
18795;BME280;29610;49.022;12.114;2023-04-25T06:01:47;96958.34;;;11.77;100.00
18795;BME280;29610;49.022;12.114;2023-04-25T06:04:36;96960.56;;;12.15;100.00
18795;BME280;29610;49.022;12.114;2023-04-25T06:07:26;96961.84;;;12.33;100.00
18795;BME280;29610;49.022;12.114;2023-04-25T06:10:15;96961.44;;;12.19;100.00
18795;BME280;29610;49.022;12.114;2023-04-25T06:13:05;96958.69;;;12.78;100.00
18795;BME280;29610;49.022;12.114;2023-04-25T06:15:57;96956.72;;;13.25;100.00
18795;BME280;29610;49.022;12.114;2023-04-25T06:18:47;96955.00;;;13.36;100.00
18795;BME280;29610;49.022;12.114;2023-04-25T06:21:36;96949.56;;;13.74;100.00
18795;BME280;29610;49.022;12.114;2023-04-25T06:24:26;96958.69;;;13.82;100.00
18795;BME280;29610;49.022;12.114;2023-04-25T06:27:16;96949.84;;;13.69;100.00
18795;BME280;29610;49.022;12.114;2023-04-25T06:30:08;96950.09;;;13.80;100.00
18795;BME280;29610;49.022;12.114;2023-04-25T06:32:59;96949.09;;;13.88;100.00
18795;BME280;29610;49.022;12.114;2023-04-25T06:35:49;96942.38;;;13.85;100.00
18795;BME280;29610;49.022;12.114;2023-04-25T06:38:46;96935.97;;;14.16;100.00
18795;BME280;29610;49.022;12.114;2023-04-25T06:41:35;96937.28;;;14.44;100.00
18795;BME280;29610;49.022;12.114;2023-04-25T06:44:27;96943.03;;;13.98;100.00
18795;BME280;29610;49.022;12.114;2023-04-25T06:47:17;96943.56;;;13.84;100.00
18795;BME280;29610;49.022;12.114;2023-04-25T06:50:12;96951.38;;;13.67;100.00
18795;BME280;29610;49.022;12.114;2023-04-25T06:53:02;96949.00;;;13.46;100.00
18795;BME280;29610;49.022;12.114;2023-04-25T06:55:51;96949.66;;;13.97;100.00
18795;BME280;29610;49.022;12.114;2023-04-25T06:58:42;96938.16;;;13.88;100.00
18795;BME280;29610;49.022;12.114;2023-04-25T07:01:42;96939.00;;;14.75;100.00
18795;BME280;29610;49.022;12.114;2023-04-25T07:04:36;96940.47;;;14.46;100.00
18795;BME280;29610;49.022;12.114;2023-04-25T07:07:27;96943.34;;;14.15;100.00
18795;BME280;29610;49.022;12.114;2023-04-25T07:10:19;96943.25;;;13.89;100.00
18795;BME280;29610;49.022;12.114;2023-04-25T07:13:09;96953.94;;;13.60;100.00
18795;BME280;29610;49.022;12.114;2023-04-25T07:15:59;96952.91;;;13.83;100.00
18795;BME280;29610;49.022;12.114;2023-04-25T07:18:50;96952.56;;;13.50;100.00
18795;BME280;29610;49.022;12.114;2023-04-25T07:21:40;96947.91;;;14.27;100.00
18795;BME280;29610;49.022;12.114;2023-04-25T07:24:32;96946.53;;;15.34;100.00
18795;BME280;29610;49.022;12.114;2023-04-25T07:27:21;96944.84;;;15.78;100.00
18795;BME280;29610;49.022;12.114;2023-04-25T07:30:23;96944.56;;;16.23;100.00
18795;BME280;29610;49.022;12.114;2023-04-25T07:33:12;96940.31;;;15.37;100.00
18795;BME280;29610;49.022;12.114;2023-04-25T07:36:01;96937.44;;;14.74;100.00
18795;BME280;29610;49.022;12.114;2023-04-25T07:38:51;96938.63;;;14.54;100.00
18795;BME280;29610;49.022;12.114;2023-04-25T07:41:41;96942.25;;;13.97;100.00
18795;BME280;29610;49.022;12.114;2023-04-25T07:44:39;96946.34;;;13.50;100.00
18795;BME280;29610;49.022;12.114;2023-04-25T07:47:31;96942.47;;;13.51;100.00
18795;BME280;29610;49.022;12.114;2023-04-25T07:50:22;96944.81;;;13.52;100.00
18795;BME280;29610;49.022;12.114;2023-04-25T07:53:11;96952.72;;;13.38;100.00
18795;BME280;29610;49.022;12.114;2023-04-25T07:56:07;96951.00;;;13.49;100.00
18795;BME280;29610;49.022;12.114;2023-04-25T07:59:02;96942.88;;;14.29;100.00
18795;BME280;29610;49.022;12.114;2023-04-25T08:01:53;96942.97;;;13.94;100.00
18795;BME280;29610;49.022;12.114;2023-04-25T08:04:42;96936.06;;;14.00;100.00
18795;BME280;29610;49.022;12.114;2023-04-25T08:07:37;96948.22;;;14.44;100.00
18795;BME280;29610;49.022;12.114;2023-04-25T08:10:27;96939.53;;;14.84;100.00
18795;BME280;29610;49.022;12.114;2023-04-25T08:13:18;96935.44;;;14.71;100.00
18795;BME280;29610;49.022;12.114;2023-04-25T08:16:09;96925.69;;;14.51;100.00
18795;BME280;29610;49.022;12.114;2023-04-25T08:19:01;96942.84;;;14.71;100.00
18795;BME280;29610;49.022;12.114;2023-04-25T08:21:50;96938.50;;;14.69;100.00
18795;BME280;29610;49.022;12.114;2023-04-25T08:24:46;96946.28;;;14.90;100.00
18795;BME280;29610;49.022;12.114;2023-04-25T08:27:35;96933.00;;;14.92;100.00
18795;BME280;29610;49.022;12.114;2023-04-25T08:30:25;96938.09;;;15.72;100.00
18795;BME280;29610;49.022;12.114;2023-04-25T08:33:16;96932.34;;;16.50;100.00
18795;BME280;29610;49.022;12.114;2023-04-25T08:36:06;96930.19;;;17.24;100.00
18795;BME280;29610;49.022;12.114;2023-04-25T08:38:56;96939.16;;;16.67;100.00
18795;BME280;29610;49.022;12.114;2023-04-25T08:41:46;96937.94;;;16.28;100.00
18795;BME280;29610;49.022;12.114;2023-04-25T08:44:35;96943.44;;;15.61;100.00
18795;BME280;29610;49.022;12.114;2023-04-25T08:47:27;96944.59;;;15.08;100.00
18795;BME280;29610;49.022;12.114;2023-04-25T08:50:19;96952.81;;;15.08;100.00
18795;BME280;29610;49.022;12.114;2023-04-25T08:53:14;96952.94;;;14.44;100.00
18795;BME280;29610;49.022;12.114;2023-04-25T08:56:07;96963.31;;;13.78;100.00
18795;BME280;29610;49.022;12.114;2023-04-25T08:58:57;96963.75;;;13.99;100.00
18795;BME280;29610;49.022;12.114;2023-04-25T09:01:47;96966.59;;;14.44;100.00
18795;BME280;29610;49.022;12.114;2023-04-25T09:04:43;96968.47;;;14.21;100.00
18795;BME280;29610;49.022;12.114;2023-04-25T09:07:36;96975.81;;;14.36;100.00
18795;BME280;29610;49.022;12.114;2023-04-25T09:10:27;96974.47;;;14.49;100.00
18795;BME280;29610;49.022;12.114;2023-04-25T09:13:26;96975.09;;;14.20;100.00
18795;BME280;29610;49.022;12.114;2023-04-25T09:16:36;96983.44;;;13.89;100.00
18795;BME280;29610;49.022;12.114;2023-04-25T09:20:07;96981.69;;;14.38;100.00
18795;BME280;29610;49.022;12.114;2023-04-25T09:23:05;96993.72;;;14.14;100.00
18795;BME280;29610;49.022;12.114;2023-04-25T09:25:57;96999.97;;;13.77;100.00
18795;BME280;29610;49.022;12.114;2023-04-25T09:28:48;97017.34;;;13.18;100.00
18795;BME280;29610;49.022;12.114;2023-04-25T09:31:41;97010.66;;;13.00;100.00
18795;BME280;29610;49.022;12.114;2023-04-25T09:34:39;97011.13;;;13.02;100.00
18795;BME280;29610;49.022;12.114;2023-04-25T09:37:30;97003.00;;;13.21;100.00
18795;BME280;29610;49.022;12.114;2023-04-25T09:40:51;97001.84;;;14.30;100.00
18795;BME280;29610;49.022;12.114;2023-04-25T09:43:49;97000.56;;;15.37;100.00
18795;BME280;29610;49.022;12.114;2023-04-25T09:46:40;96993.06;;;16.16;100.00
18795;BME280;29610;49.022;12.114;2023-04-25T09:49:40;97011.69;;;14.99;100.00
18795;BME280;29610;49.022;12.114;2023-04-25T09:52:32;97028.69;;;13.71;100.00
18795;BME280;29610;49.022;12.114;2023-04-25T09:55:34;97044.41;;;12.65;100.00
18795;BME280;29610;49.022;12.114;2023-04-25T09:58:25;97036.75;;;12.27;100.00
18795;BME280;29610;49.022;12.114;2023-04-25T10:01:23;97039.13;;;12.29;100.00
18795;BME280;29610;49.022;12.114;2023-04-25T10:04:30;97031.38;;;12.43;100.00
18795;BME280;29610;49.022;12.114;2023-04-25T10:07:30;97019.16;;;13.46;100.00
18795;BME280;29610;49.022;12.114;2023-04-25T10:10:20;97028.59;;;14.02;100.00
18795;BME280;29610;49.022;12.114;2023-04-25T10:13:16;97028.91;;;13.62;100.00
18795;BME280;29610;49.022;12.114;2023-04-25T10:16:06;97042.41;;;12.77;100.00
18795;BME280;29610;49.022;12.114;2023-04-25T10:18:56;97039.44;;;12.98;100.00
18795;BME280;29610;49.022;12.114;2023-04-25T10:21:52;97046.75;;;12.94;100.00
18795;BME280;29610;49.022;12.114;2023-04-25T10:24:41;97041.72;;;12.80;100.00
18795;BME280;29610;49.022;12.114;2023-04-25T10:27:31;97038.19;;;12.37;100.00
18795;BME280;29610;49.022;12.114;2023-04-25T10:30:20;97054.22;;;11.47;100.00
18795;BME280;29610;49.022;12.114;2023-04-25T10:33:18;97059.66;;;11.35;100.00
18795;BME280;29610;49.022;12.114;2023-04-25T10:36:12;97068.72;;;11.51;100.00
18795;BME280;29610;49.022;12.114;2023-04-25T10:39:04;97062.47;;;11.62;100.00
18795;BME280;29610;49.022;12.114;2023-04-25T10:41:57;97065.09;;;11.59;100.00
18795;BME280;29610;49.022;12.114;2023-04-25T10:45:02;97058.19;;;11.49;100.00
18795;BME280;29610;49.022;12.114;2023-04-25T10:47:54;97057.19;;;11.94;100.00
18795;BME280;29610;49.022;12.114;2023-04-25T10:50:45;97054.78;;;12.59;100.00
18795;BME280;29610;49.022;12.114;2023-04-25T10:53:34;97043.69;;;14.15;100.00
18795;BME280;29610;49.022;12.114;2023-04-25T10:56:26;97035.88;;;15.68;100.00
18795;BME280;29610;49.022;12.114;2023-04-25T10:59:17;97037.97;;;14.81;100.00
18795;BME280;29610;49.022;12.114;2023-04-25T11:02:12;97041.09;;;14.22;100.00
18795;BME280;29610;49.022;12.114;2023-04-25T11:05:03;97036.81;;;15.30;100.00
18795;BME280;29610;49.022;12.114;2023-04-25T11:07:57;97033.00;;;15.35;100.00
18795;BME280;29610;49.022;12.114;2023-04-25T11:10:55;97032.28;;;15.15;100.00
18795;BME280;29610;49.022;12.114;2023-04-25T11:13:48;97027.75;;;14.58;100.00
18795;BME280;29610;49.022;12.114;2023-04-25T11:16:38;97037.78;;;13.94;100.00
18795;BME280;29610;49.022;12.114;2023-04-25T11:19:29;97039.81;;;14.77;100.00
18795;BME280;29610;49.022;12.114;2023-04-25T11:22:21;97033.91;;;14.75;100.00
18795;BME280;29610;49.022;12.114;2023-04-25T11:25:15;97030.81;;;15.21;100.00
18795;BME280;29610;49.022;12.114;2023-04-25T11:28:04;97032.44;;;15.26;100.00
18795;BME280;29610;49.022;12.114;2023-04-25T11:30:53;97038.94;;;15.63;100.00
18795;BME280;29610;49.022;12.114;2023-04-25T11:33:44;97033.94;;;16.61;100.00
18795;BME280;29610;49.022;12.114;2023-04-25T11:36:33;97025.13;;;17.72;100.00
18795;BME280;29610;49.022;12.114;2023-04-25T11:39:24;97017.47;;;18.06;97.08
18795;BME280;29610;49.022;12.114;2023-04-25T11:42:15;97014.03;;;18.30;90.25
18795;BME280;29610;49.022;12.114;2023-04-25T11:45:06;97022.66;;;17.57;93.74
18795;BME280;29610;49.022;12.114;2023-04-25T11:47:55;97029.34;;;16.39;95.37
18795;BME280;29610;49.022;12.114;2023-04-25T11:50:45;97025.25;;;16.22;98.44
18795;BME280;29610;49.022;12.114;2023-04-25T11:53:34;97023.50;;;16.40;90.22
18795;BME280;29610;49.022;12.114;2023-04-25T11:56:24;97028.38;;;16.54;90.58
18795;BME280;29610;49.022;12.114;2023-04-25T11:59:15;97017.50;;;17.01;86.41
18795;BME280;29610;49.022;12.114;2023-04-25T12:02:07;97021.72;;;16.95;84.86
18795;BME280;29610;49.022;12.114;2023-04-25T12:04:59;97023.00;;;16.31;86.77
18795;BME280;29610;49.022;12.114;2023-04-25T12:08:11;97029.41;;;15.83;99.36
18795;BME280;29610;49.022;12.114;2023-04-25T12:11:01;97031.78;;;14.87;100.00
18795;BME280;29610;49.022;12.114;2023-04-25T12:13:52;97026.63;;;14.59;100.00
18795;BME280;29610;49.022;12.114;2023-04-25T12:16:46;97033.88;;;14.52;100.00
18795;BME280;29610;49.022;12.114;2023-04-25T12:19:36;97028.53;;;15.01;100.00
18795;BME280;29610;49.022;12.114;2023-04-25T12:22:28;97028.34;;;14.90;100.00
18795;BME280;29610;49.022;12.114;2023-04-25T12:25:37;97034.88;;;15.31;100.00
18795;BME280;29610;49.022;12.114;2023-04-25T12:28:27;97026.50;;;15.20;100.00
18795;BME280;29610;49.022;12.114;2023-04-25T12:31:16;97037.00;;;14.50;100.00
18795;BME280;29610;49.022;12.114;2023-04-25T12:34:06;97039.09;;;14.38;100.00
18795;BME280;29610;49.022;12.114;2023-04-25T12:36:56;97032.59;;;15.10;98.96
18795;BME280;29610;49.022;12.114;2023-04-25T12:39:44;97028.09;;;15.44;100.00
18795;BME280;29610;49.022;12.114;2023-04-25T12:42:34;97049.31;;;16.06;98.34
18795;BME280;29610;49.022;12.114;2023-04-25T12:45:24;97045.16;;;15.89;92.76
18795;BME280;29610;49.022;12.114;2023-04-25T12:48:13;97042.34;;;16.12;100.00
18795;BME280;29610;49.022;12.114;2023-04-25T12:51:04;97048.53;;;16.68;89.36
18795;BME280;29610;49.022;12.114;2023-04-25T12:53:53;97043.84;;;16.39;90.45
18795;BME280;29610;49.022;12.114;2023-04-25T12:56:44;97053.06;;;15.94;90.24
18795;BME280;29610;49.022;12.114;2023-04-25T12:59:36;97051.50;;;16.53;91.09
18795;BME280;29610;49.022;12.114;2023-04-25T13:02:25;97049.56;;;15.68;95.04
18795;BME280;29610;49.022;12.114;2023-04-25T13:05:18;97059.28;;;14.94;100.00
18795;BME280;29610;49.022;12.114;2023-04-25T13:08:08;97052.84;;;14.83;100.00
18795;BME280;29610;49.022;12.114;2023-04-25T13:10:57;97064.16;;;14.82;100.00
18795;BME280;29610;49.022;12.114;2023-04-25T13:13:48;97057.03;;;14.77;98.08
18795;BME280;29610;49.022;12.114;2023-04-25T13:16:37;97069.72;;;14.66;99.09
18795;BME280;29610;49.022;12.114;2023-04-25T13:19:26;97072.88;;;14.49;100.00
18795;BME280;29610;49.022;12.114;2023-04-25T13:22:16;97083.84;;;14.30;100.00
18795;BME280;29610;49.022;12.114;2023-04-25T13:25:09;97071.03;;;14.34;100.00
18795;BME280;29610;49.022;12.114;2023-04-25T13:27:58;97083.72;;;14.07;100.00
18795;BME280;29610;49.022;12.114;2023-04-25T13:30:48;97076.25;;;14.23;100.00
18795;BME280;29610;49.022;12.114;2023-04-25T13:33:37;97078.91;;;14.01;100.00
18795;BME280;29610;49.022;12.114;2023-04-25T13:36:26;97083.22;;;13.67;100.00
18795;BME280;29610;49.022;12.114;2023-04-25T13:39:17;97089.16;;;13.54;100.00
18795;BME280;29610;49.022;12.114;2023-04-25T13:42:09;97094.00;;;13.45;100.00
18795;BME280;29610;49.022;12.114;2023-04-25T13:44:58;97097.31;;;13.69;100.00
18795;BME280;29610;49.022;12.114;2023-04-25T13:47:47;97089.28;;;14.30;100.00
18795;BME280;29610;49.022;12.114;2023-04-25T13:50:36;97099.22;;;14.38;100.00
18795;BME280;29610;49.022;12.114;2023-04-25T13:53:26;97091.88;;;13.88;100.00
18795;BME280;29610;49.022;12.114;2023-04-25T13:56:15;97105.00;;;13.64;100.00
18795;BME280;29610;49.022;12.114;2023-04-25T13:59:05;97122.00;;;13.57;100.00
18795;BME280;29610;49.022;12.114;2023-04-25T14:01:55;97111.34;;;13.37;100.00
18795;BME280;29610;49.022;12.114;2023-04-25T14:04:44;97106.78;;;13.56;100.00
18795;BME280;29610;49.022;12.114;2023-04-25T14:07:34;97096.13;;;13.86;100.00
18795;BME280;29610;49.022;12.114;2023-04-25T14:10:25;97101.41;;;14.48;100.00
18795;BME280;29610;49.022;12.114;2023-04-25T14:13:14;97102.72;;;14.77;100.00
18795;BME280;29610;49.022;12.114;2023-04-25T14:16:05;97097.53;;;14.91;100.00
18795;BME280;29610;49.022;12.114;2023-04-25T14:18:55;97088.97;;;15.37;100.00
18795;BME280;29610;49.022;12.114;2023-04-25T14:21:44;97098.75;;;15.61;100.00
18795;BME280;29610;49.022;12.114;2023-04-25T14:24:34;97088.59;;;15.87;96.55
18795;BME280;29610;49.022;12.114;2023-04-25T14:27:23;97089.31;;;16.40;94.06
18795;BME280;29610;49.022;12.114;2023-04-25T14:30:16;97089.34;;;16.73;92.63
18795;BME280;29610;49.022;12.114;2023-04-25T14:33:07;97086.94;;;16.39;84.82
18795;BME280;29610;49.022;12.114;2023-04-25T14:35:56;97091.03;;;16.52;84.61
18795;BME280;29610;49.022;12.114;2023-04-25T14:38:45;97088.44;;;16.99;81.37
18795;BME280;29610;49.022;12.114;2023-04-25T14:41:34;97105.16;;;16.24;82.38
18795;BME280;29610;49.022;12.114;2023-04-25T14:44:23;97100.16;;;15.51;91.17
18795;BME280;29610;49.022;12.114;2023-04-25T14:47:13;97115.59;;;15.18;86.29
18795;BME280;29610;49.022;12.114;2023-04-25T14:50:06;97117.94;;;14.97;88.97
18795;BME280;29610;49.022;12.114;2023-04-25T14:52:59;97134.00;;;15.17;92.57
18795;BME280;29610;49.022;12.114;2023-04-25T14:55:48;97123.81;;;15.18;89.59
18795;BME280;29610;49.022;12.114;2023-04-25T14:58:37;97129.22;;;15.37;87.38